Time;durP1;ratioP1;P1;durP2;ratioP2;P2;SDS_P1;SDS_P2;PMS_P1;PMS_P2;Temp;Humidity;BMP_temperature;BMP_pressure;BME280_temperature;BME280_humidity;BME280_pressure;Samples;Min_cycle;Max_cycle;Signal;HPM_P1;HPM_P2
2022/12/24 00:02:17;;;;;;;31.83;4.75;;;10.70;99.90;;;;;;4974663;28;20031;-83
2022/12/24 00:04:42;;;;;;;40.00;6.90;;;10.80;99.90;;;;;;4974677;28;20037;-83
2022/12/24 00:07:08;;;;;;;29.33;5.13;;;10.80;99.90;;;;;;4990940;28;20094;-84
2022/12/24 00:09:34;;;;;;;38.75;4.93;;;10.70;99.90;;;;;;4974664;28;20039;-84
2022/12/24 00:12:38;;;;;;;33.10;5.18;;;10.70;99.90;;;;;;4991044;28;20031;-85
2022/12/24 00:15:05;;;;;;;35.78;4.85;;;10.70;99.90;;;;;;4975511;28;20030;-86
2022/12/24 00:17:31;;;;;;;30.48;5.50;;;10.70;99.90;;;;;;4974784;28;20033;-85
2022/12/24 00:19:57;;;;;;;38.88;5.15;;;10.70;99.90;;;;;;4974668;28;20035;-85
2022/12/24 00:22:23;;;;;;;39.40;5.55;;;10.70;99.90;;;;;;4990592;28;20031;-85
2022/12/24 00:24:49;;;;;;;36.97;6.07;;;10.70;99.90;;;;;;4976158;28;20026;-89
2022/12/24 00:27:15;;;;;;;42.92;6.13;;;10.70;99.90;;;;;;4976394;28;20082;-89
2022/12/24 00:29:40;;;;;;;35.53;6.32;;;10.70;99.90;;;;;;4976155;28;20033;-87
2022/12/24 00:32:08;;;;;;;31.48;4.70;;;10.70;99.90;;;;;;4976611;28;20035;-88
2022/12/24 00:34:37;;;;;;;38.33;5.50;;;10.70;99.90;;;;;;4977737;28;20051;-89
2022/12/24 00:37:04;;;;;;;31.52;4.60;;;10.70;99.90;;;;;;4977638;28;20392;-89
2022/12/24 00:39:30;;;;;;;30.38;5.03;;;10.70;99.90;;;;;;4976058;28;20065;-89
2022/12/24 00:41:56;;;;;;;36.63;5.18;;;10.70;99.90;;;;;;4975127;28;20031;-89
2022/12/24 00:44:40;;;;;;;34.33;5.25;;;10.70;99.90;;;;;;4974869;28;20015;-90
2022/12/24 00:47:06;;;;;;;40.90;5.80;;;10.70;99.90;;;;;;4974504;28;20038;-90
2022/12/24 00:49:31;;;;;;;28.55;5.25;;;10.70;99.90;;;;;;4974980;28;20030;-89
2022/12/24 00:51:57;;;;;;;38.97;5.68;;;10.70;99.90;;;;;;4975268;28;20057;-90
2022/12/24 00:54:23;;;;;;;36.45;5.32;;;10.60;99.90;;;;;;4974838;28;20022;-89
2022/12/24 00:56:48;;;;;;;31.80;6.05;;;10.70;99.90;;;;;;4990588;28;20058;-85
2022/12/24 00:59:14;;;;;;;36.65;5.22;;;10.70;99.90;;;;;;4973980;28;20039;-85
2022/12/24 01:01:40;;;;;;;33.97;4.85;;;10.70;99.90;;;;;;4973818;28;20085;-85
2022/12/24 01:06:49;;;;;;;37.38;5.68;;;10.60;99.90;;;;;;4987924;28;20058;-85
2022/12/24 01:09:15;;;;;;;41.20;6.97;;;10.60;99.90;;;;;;4973650;28;20042;-85
2022/12/24 01:11:41;;;;;;;42.25;5.28;;;10.60;99.90;;;;;;4974861;28;20019;-86
2022/12/24 01:14:07;;;;;;;37.83;4.65;;;10.60;99.90;;;;;;4973600;28;20042;-84
2022/12/24 01:16:32;;;;;;;41.88;6.60;;;10.60;99.90;;;;;;4989758;28;20388;-84
2022/12/24 01:18:58;;;;;;;45.78;6.53;;;10.60;99.90;;;;;;4973369;28;20031;-84
2022/12/24 01:21:24;;;;;;;28.50;4.72;;;10.70;99.90;;;;;;4973661;28;20019;-84
2022/12/24 01:27:11;;;;;;;38.47;6.25;;;10.60;99.90;;;;;;4975035;28;20102;-84
2022/12/24 01:29:37;;;;;;;33.60;6.22;;;10.60;99.90;;;;;;4973425;28;20455;-83
2022/12/24 01:32:03;;;;;;;32.65;5.25;;;10.60;99.90;;;;;;4973360;28;20073;-84
2022/12/24 01:34:29;;;;;;;47.70;6.13;;;10.60;99.90;;;;;;4973420;28;20039;-83
2022/12/24 01:36:55;;;;;;;44.08;6.50;;;10.60;99.90;;;;;;4973287;28;20158;-83
2022/12/24 01:39:22;;;;;;;38.25;7.05;;;10.60;99.90;;;;;;4973116;28;20042;-83
2022/12/24 01:44:34;;;;;;;40.20;5.32;;;10.60;99.90;;;;;;4988164;28;20042;-83
2022/12/24 01:47:25;;;;;;;35.97;6.82;;;10.60;99.90;;;;;;4973220;28;20369;-83
2022/12/24 01:49:55;;;;;;;34.33;4.95;;;10.60;99.90;;;;;;4974563;28;20494;-83
2022/12/24 01:52:33;;;;;;;39.75;5.75;;;10.60;99.90;;;;;;4974057;28;20023;-89
2022/12/24 01:55:13;;;;;;;40.55;5.93;;;10.60;99.90;;;;;;4974570;28;20041;-89
2022/12/24 01:58:06;;;;;;;36.60;5.43;;;10.60;99.90;;;;;;4975879;28;20051;-89
2022/12/24 02:00:32;;;;;;;35.08;5.35;;;10.60;99.90;;;;;;4977080;28;20047;-89
2022/12/24 02:02:58;;;;;;;34.03;5.18;;;10.60;99.90;;;;;;4978260;28;20113;-89
2022/12/24 02:05:29;;;;;;;45.47;7.45;;;10.50;99.90;;;;;;4978892;28;20483;-89
2022/12/24 02:07:56;;;;;;;31.75;5.45;;;10.50;99.90;;;;;;4979004;28;20026;-90
2022/12/24 02:10:22;;;;;;;40.83;6.30;;;10.50;99.90;;;;;;4977969;28;20035;-89
2022/12/24 02:12:49;;;;;;;30.10;4.95;;;10.50;99.90;;;;;;4978076;28;20069;-90
2022/12/24 02:15:17;;;;;;;41.88;7.05;;;10.50;99.90;;;;;;4977909;28;20026;-89
2022/12/24 02:18:09;;;;;;;35.38;5.10;;;10.50;99.90;;;;;;4977933;28;20019;-89
2022/12/24 02:21:04;;;;;;;38.13;5.65;;;10.50;99.90;;;;;;4978279;28;20049;-88
2022/12/24 02:24:15;;;;;;;35.22;5.90;;;10.40;99.90;;;;;;4974575;28;20031;-88
2022/12/24 02:26:57;;;;;;;45.55;5.93;;;10.40;99.90;;;;;;4957837;29;20033;-88
2022/12/24 02:29:23;;;;;;;30.88;4.13;;;10.40;99.90;;;;;;4957303;29;20079;-88
2022/12/24 02:32:13;;;;;;;40.88;6.93;;;10.40;99.90;;;;;;4970106;28;20038;-88
2022/12/24 02:35:01;;;;;;;32.53;5.55;;;10.30;99.90;;;;;;4977434;28;20077;-88
2022/12/24 02:37:38;;;;;;;37.00;4.82;;;10.30;99.90;;;;;;4977310;28;20027;-84
2022/12/24 02:40:24;;;;;;;39.85;6.40;;;10.30;99.90;;;;;;4976209;28;20034;-84
2022/12/24 02:42:58;;;;;;;28.85;5.22;;;10.20;99.90;;;;;;4977633;28;20106;-84
2022/12/24 02:45:30;;;;;;;31.73;4.80;;;10.20;99.90;;;;;;4977585;28;20027;-84
2022/12/24 02:47:57;;;;;;;28.55;4.70;;;10.20;99.90;;;;;;4976142;28;20030;-84
2022/12/24 02:50:24;;;;;;;30.70;4.88;;;10.20;99.90;;;;;;4977634;28;20023;-84
2022/12/24 02:52:49;;;;;;;32.03;7.75;;;10.20;99.90;;;;;;4976362;28;20025;-84
2022/12/24 02:58:19;;;;;;;38.00;4.68;;;10.10;99.90;;;;;;4977069;28;20077;-84
2022/12/24 03:00:57;;;;;;;32.17;4.25;;;10.10;99.90;;;;;;4975947;28;20066;-84
2022/12/24 03:03:40;;;;;;;38.97;5.03;;;10.10;99.90;;;;;;4975850;28;20027;-84
2022/12/24 03:06:34;;;;;;;29.35;5.50;;;10.10;99.90;;;;;;4975863;28;20023;-84
2022/12/24 03:09:13;;;;;;;34.92;5.30;;;10.10;99.90;;;;;;4976574;28;20035;-85
2022/12/24 03:11:46;;;;;;;40.13;5.97;;;10.10;99.90;;;;;;4977339;28;20031;-85
2022/12/24 03:14:14;;;;;;;31.40;4.35;;;10.10;99.90;;;;;;4977124;28;20034;-84
2022/12/24 03:16:41;;;;;;;37.58;6.72;;;10.00;99.90;;;;;;4976021;28;20113;-85
2022/12/24 03:19:07;;;;;;;36.58;5.45;;;10.10;99.90;;;;;;4975744;28;20034;-85
2022/12/24 03:21:37;;;;;;;38.67;5.30;;;10.10;99.90;;;;;;4976084;28;20339;-84
2022/12/24 03:24:05;;;;;;;43.13;6.53;;;10.10;99.90;;;;;;4975701;28;20122;-85
2022/12/24 03:26:32;;;;;;;41.10;6.15;;;10.10;99.90;;;;;;4975450;28;20366;-88
2022/12/24 03:28:58;;;;;;;36.47;5.07;;;10.10;99.90;;;;;;4975608;28;20121;-83
2022/12/24 03:31:24;;;;;;;35.05;5.47;;;10.10;99.90;;;;;;4991577;28;20027;-83
2022/12/24 03:33:50;;;;;;;40.92;5.82;;;10.10;99.90;;;;;;4976640;28;20114;-82
2022/12/24 03:36:17;;;;;;;47.75;6.28;;;10.10;99.90;;;;;;4975831;28;20453;-83
2022/12/24 03:38:43;;;;;;;45.22;6.45;;;10.00;99.90;;;;;;4975170;28;20052;-83
2022/12/24 03:41:09;;;;;;;37.60;6.68;;;10.00;99.90;;;;;;4975146;28;20023;-83
2022/12/24 03:43:35;;;;;;;41.35;6.05;;;10.00;99.90;;;;;;4991430;28;20542;-89
2022/12/24 03:46:05;;;;;;;42.10;5.40;;;10.00;99.90;;;;;;4976400;28;20027;-89
2022/12/24 03:48:33;;;;;;;40.87;5.67;;;10.10;99.90;;;;;;4976560;28;20472;-89
2022/12/24 03:51:25;;;;;;;36.35;5.63;;;10.10;99.90;;;;;;4976496;28;20026;-89
2022/12/24 03:53:57;;;;;;;38.92;5.47;;;10.10;99.90;;;;;;4976337;28;20043;-89
2022/12/24 03:56:23;;;;;;;53.05;6.80;;;10.10;99.90;;;;;;4975970;28;20058;-90
2022/12/24 03:58:49;;;;;;;40.92;7.68;;;10.10;99.90;;;;;;4976260;28;20027;-89
2022/12/24 04:01:16;;;;;;;39.00;7.05;;;10.10;99.90;;;;;;4976060;28;20077;-88
2022/12/24 04:03:42;;;;;;;41.67;6.72;;;10.20;99.90;;;;;;4975785;28;20083;-88
2022/12/24 04:06:11;;;;;;;38.00;6.32;;;10.20;99.90;;;;;;4975680;28;20031;-88
2022/12/24 04:08:37;;;;;;;43.70;6.93;;;10.20;99.90;;;;;;4975659;28;20027;-88
2022/12/24 04:11:04;;;;;;;37.33;6.75;;;10.20;99.90;;;;;;4975561;28;20062;-88
2022/12/24 04:13:30;;;;;;;41.70;6.95;;;10.20;99.90;;;;;;4975457;28;20023;-89
2022/12/24 04:15:58;;;;;;;42.83;7.20;;;10.30;99.90;;;;;;4975187;28;20130;-89
2022/12/24 04:18:24;;;;;;;40.47;7.03;;;10.30;99.90;;;;;;4975639;28;20027;-88
2022/12/24 04:20:50;;;;;;;39.88;6.30;;;10.30;99.90;;;;;;4975092;28;20057;-88
2022/12/24 04:23:15;;;;;;;36.33;6.18;;;10.30;99.90;;;;;;4975131;28;20031;-88
2022/12/24 04:25:47;;;;;;;40.45;7.20;;;10.30;99.90;;;;;;4975318;28;20034;-88
2022/12/24 04:28:15;;;;;;;41.38;6.50;;;10.40;99.90;;;;;;4976207;28;20023;-87
2022/12/24 04:30:41;;;;;;;40.33;6.45;;;10.40;99.90;;;;;;4976446;28;20034;-89
2022/12/24 04:33:07;;;;;;;43.05;7.60;;;10.40;99.90;;;;;;4974924;28;20480;-86
2022/12/24 04:35:33;;;;;;;45.25;7.53;;;10.40;99.90;;;;;;4975486;28;20085;-85
2022/12/24 04:38:01;;;;;;;39.38;6.57;;;10.40;99.90;;;;;;4974230;28;20432;-84
2022/12/24 04:40:38;;;;;;;39.60;7.20;;;10.50;99.90;;;;;;4974964;28;20038;-85
2022/12/24 04:43:03;;;;;;;38.83;7.60;;;10.50;99.90;;;;;;4974882;28;20394;-86
2022/12/24 04:45:30;;;;;;;42.58;6.57;;;10.50;99.90;;;;;;4975439;28;20027;-85
2022/12/24 04:47:56;;;;;;;46.75;7.85;;;10.60;99.90;;;;;;4990743;28;20476;-85
2022/12/24 04:50:21;;;;;;;41.42;7.10;;;10.60;99.90;;;;;;4974219;28;20377;-85
2022/12/24 04:52:47;;;;;;;32.90;6.68;;;10.60;99.90;;;;;;4975489;28;20018;-85
2022/12/24 04:55:13;;;;;;;37.03;6.68;;;10.60;99.90;;;;;;4973855;28;20109;-85
2022/12/24 04:57:39;;;;;;;51.75;7.38;;;10.70;99.90;;;;;;4973758;28;20039;-89
2022/12/24 05:00:06;;;;;;;30.88;7.15;;;10.70;99.90;;;;;;4974606;28;20031;-88
2022/12/24 05:02:31;;;;;;;34.03;6.70;;;10.70;99.90;;;;;;4974674;28;20078;-90
2022/12/24 05:04:57;;;;;;;41.13;7.28;;;10.70;99.90;;;;;;4974651;28;20031;-90
2022/12/24 05:07:23;;;;;;;52.05;6.68;;;10.70;99.90;;;;;;4974152;28;20518;-85
2022/12/24 05:09:49;;;;;;;48.80;8.15;;;10.70;99.90;;;;;;4974415;28;20034;-86
2022/12/24 05:12:17;;;;;;;44.28;7.15;;;10.70;99.90;;;;;;4973787;28;20027;-86
2022/12/24 05:14:46;;;;;;;39.25;6.00;;;10.70;99.90;;;;;;4974045;28;20035;-86
2022/12/24 05:17:12;;;;;;;38.95;8.02;;;10.70;99.90;;;;;;4989852;28;20177;-86
2022/12/24 05:19:44;;;;;;;39.95;6.20;;;10.70;99.90;;;;;;4973637;28;20543;-86
2022/12/24 05:27:39;;;;;;;50.28;6.95;;;10.70;99.90;;;;;;4987649;28;20388;-85
2022/12/24 05:30:11;;;;;;;36.60;5.20;;;10.70;99.90;;;;;;4973334;28;20035;-86
2022/12/24 05:32:36;;;;;;;33.45;6.20;;;10.80;99.90;;;;;;4973141;28;20081;-86
2022/12/24 05:35:02;;;;;;;35.88;5.47;;;10.80;99.90;;;;;;4973510;28;20496;-86
2022/12/24 05:37:28;;;;;;;35.50;7.22;;;10.80;99.90;;;;;;4973372;28;20476;-85
2022/12/24 05:39:54;;;;;;;37.85;6.13;;;10.80;99.90;;;;;;4973414;28;20031;-85
2022/12/24 05:42:19;;;;;;;39.97;7.03;;;10.80;99.90;;;;;;4972220;28;20065;-85
2022/12/24 05:44:45;;;;;;;34.08;5.88;;;10.80;99.90;;;;;;4989527;28;20034;-85
2022/12/24 05:47:10;;;;;;;40.00;7.25;;;10.80;99.90;;;;;;4973347;28;20019;-85
2022/12/24 05:49:36;;;;;;;43.00;7.10;;;10.90;99.90;;;;;;4989649;28;20049;-85
2022/12/24 05:52:02;;;;;;;41.33;6.82;;;10.90;99.90;;;;;;4989730;28;20089;-90
2022/12/24 05:54:47;;;;;;;54.10;6.75;;;10.90;99.90;;;;;;4991036;28;20035;-90
2022/12/24 05:57:13;;;;;;;45.00;7.65;;;10.90;99.90;;;;;;4989951;28;20054;-85
2022/12/24 05:59:39;;;;;;;46.20;7.18;;;10.90;99.90;;;;;;4975056;28;20042;-84
2022/12/24 06:02:06;;;;;;;40.03;7.40;;;10.90;99.90;;;;;;4989464;28;20035;-85
2022/12/24 06:04:32;;;;;;;38.58;7.07;;;10.90;99.90;;;;;;4974708;28;20110;-85
2022/12/24 06:06:58;;;;;;;33.45;6.35;;;10.90;99.90;;;;;;4974913;28;20441;-86
2022/12/24 06:09:24;;;;;;;40.58;7.43;;;11.00;99.90;;;;;;4989420;28;20027;-85
2022/12/24 06:11:50;;;;;;;43.47;7.32;;;11.00;99.90;;;;;;4989237;28;20035;-86
2022/12/24 06:14:15;;;;;;;39.47;7.25;;;11.00;99.90;;;;;;4989432;28;20280;-84
2022/12/24 06:16:41;;;;;;;39.08;7.07;;;10.90;99.90;;;;;;4989171;28;20069;-84
2022/12/24 06:19:07;;;;;;;37.30;6.85;;;11.00;99.90;;;;;;4990316;28;20031;-89
2022/12/24 06:21:33;;;;;;;33.95;7.43;;;11.00;99.90;;;;;;4973965;28;20023;-89
2022/12/24 06:24:00;;;;;;;40.10;7.38;;;11.00;99.90;;;;;;4974030;28;20019;-89
2022/12/24 06:26:26;;;;;;;45.55;8.18;;;11.00;99.90;;;;;;4974363;28;20538;-89
2022/12/24 06:28:52;;;;;;;38.72;6.60;;;11.00;99.90;;;;;;4973588;28;20026;-87
2022/12/24 06:31:21;;;;;;;39.30;8.52;;;11.00;99.90;;;;;;4974158;28;20031;-87
2022/12/24 06:33:47;;;;;;;40.28;6.72;;;11.00;99.90;;;;;;4973863;28;20481;-87
2022/12/24 06:36:19;;;;;;;39.30;7.50;;;11.00;99.90;;;;;;4973956;28;20129;-86
2022/12/24 06:38:46;;;;;;;42.80;9.00;;;11.00;99.90;;;;;;4973623;28;20054;-87
2022/12/24 06:41:12;;;;;;;45.30;6.78;;;11.00;99.90;;;;;;4973629;28;20039;-88
2022/12/24 06:43:39;;;;;;;42.30;7.78;;;11.00;99.90;;;;;;4973758;28;20019;-88
2022/12/24 06:46:04;;;;;;;40.78;6.88;;;11.00;99.90;;;;;;4977158;28;20550;-88
2022/12/24 06:48:30;;;;;;;49.97;8.45;;;11.00;99.90;;;;;;4993150;28;20113;-88
2022/12/24 06:50:56;;;;;;;47.50;8.45;;;11.00;99.90;;;;;;4977289;28;20034;-89
2022/12/24 06:53:22;;;;;;;41.38;7.78;;;11.00;99.90;;;;;;4977005;28;20436;-89
2022/12/24 06:55:48;;;;;;;43.95;8.23;;;11.00;99.90;;;;;;4976992;28;20107;-88
2022/12/24 06:58:13;;;;;;;48.10;8.90;;;11.00;99.90;;;;;;4976839;28;20069;-88
2022/12/24 07:00:39;;;;;;;33.47;8.23;;;11.00;99.90;;;;;;4993425;28;20038;-88
2022/12/24 07:03:05;;;;;;;48.88;8.32;;;11.00;99.90;;;;;;4976534;28;20473;-88
2022/12/24 07:05:30;;;;;;;47.90;8.48;;;11.00;99.90;;;;;;4960986;28;20361;-89
2022/12/24 07:07:56;;;;;;;47.47;8.25;;;11.00;99.90;;;;;;4960797;28;20033;-88
2022/12/24 07:10:22;;;;;;;43.63;9.32;;;11.00;99.90;;;;;;4982217;23;20059;-85
2022/12/24 07:12:48;;;;;;;43.47;8.35;;;11.00;99.90;;;;;;4976539;28;20038;-85
2022/12/24 07:15:15;;;;;;;48.30;7.97;;;11.00;99.90;;;;;;4975953;28;20362;-85
2022/12/24 07:17:42;;;;;;;45.40;8.70;;;11.10;99.90;;;;;;4975649;28;20027;-85
2022/12/24 07:20:11;;;;;;;41.38;8.75;;;11.10;99.90;;;;;;4975748;28;20041;-89
2022/12/24 07:22:36;;;;;;;38.50;7.43;;;11.00;99.90;;;;;;4976853;28;20019;-89
2022/12/24 07:25:02;;;;;;;42.38;8.23;;;11.00;99.90;;;;;;4961375;28;20460;-88
2022/12/24 07:27:29;;;;;;;46.25;8.02;;;11.00;99.90;;;;;;4961455;28;20050;-89
2022/12/24 07:29:55;;;;;;;46.92;8.50;;;11.00;99.90;;;;;;4960849;28;20118;-83
2022/12/24 07:32:20;;;;;;;42.58;8.38;;;11.00;99.90;;;;;;4989509;28;20117;-83
2022/12/24 07:34:52;;;;;;;47.83;8.73;;;11.00;99.90;;;;;;4978631;28;20121;-83
2022/12/24 07:37:18;;;;;;;34.15;6.38;;;11.00;99.90;;;;;;4995117;28;20157;-86
2022/12/24 07:40:06;;;;;;;47.63;7.88;;;11.10;99.90;;;;;;4962467;28;20121;-86
2022/12/24 07:42:33;;;;;;;33.28;6.40;;;11.10;99.90;;;;;;4996136;28;20026;-85
2022/12/24 07:44:58;;;;;;;46.80;7.93;;;11.00;99.90;;;;;;4994733;28;20030;-85
2022/12/24 07:47:24;;;;;;;36.78;6.68;;;11.00;99.90;;;;;;4978585;28;20500;-85
2022/12/24 07:49:50;;;;;;;51.58;8.48;;;11.00;99.90;;;;;;4978644;28;20399;-85
2022/12/24 07:52:15;;;;;;;39.53;7.03;;;11.10;99.90;;;;;;4978449;28;20026;-85
2022/12/24 07:54:41;;;;;;;39.95;6.55;;;11.00;99.90;;;;;;4978207;28;20034;-85
2022/12/24 07:57:07;;;;;;;51.13;7.35;;;11.00;99.90;;;;;;4994244;28;20495;-85
2022/12/24 07:59:32;;;;;;;30.95;6.70;;;11.10;99.90;;;;;;4983378;28;20026;-85
2022/12/24 08:01:58;;;;;;;31.55;6.35;;;11.00;99.90;;;;;;4974871;28;20030;-85
2022/12/24 08:04:24;;;;;;;28.20;7.78;;;11.10;99.90;;;;;;4975097;28;20023;-85
2022/12/24 08:06:49;;;;;;;43.47;7.05;;;11.00;99.90;;;;;;4959369;28;20042;-89
2022/12/24 08:09:15;;;;;;;38.15;7.45;;;11.00;99.90;;;;;;4991929;28;20030;-89
2022/12/24 08:11:41;;;;;;;50.22;8.15;;;11.00;99.90;;;;;;4942964;28;20031;-85
2022/12/24 08:14:07;;;;;;;40.65;6.57;;;11.00;99.90;;;;;;4990745;28;20197;-86
2022/12/24 08:16:33;;;;;;;46.78;7.85;;;11.00;99.90;;;;;;4974366;28;20455;-86
2022/12/24 08:18:58;;;;;;;42.85;8.90;;;11.00;99.90;;;;;;4942298;28;20070;-85
2022/12/24 08:21:24;;;;;;;37.22;7.55;;;11.10;99.90;;;;;;4958370;28;20022;-86
2022/12/24 08:23:49;;;;;;;40.45;6.57;;;11.00;99.90;;;;;;4974353;28;20038;-86
2022/12/24 08:26:15;;;;;;;40.60;7.05;;;11.00;99.90;;;;;;4958414;28;20031;-86
2022/12/24 08:28:41;;;;;;;37.60;6.80;;;11.00;99.90;;;;;;4942689;28;20077;-83
2022/12/24 08:31:08;;;;;;;34.13;6.10;;;11.00;99.90;;;;;;4974415;28;20067;-83
2022/12/24 08:33:34;;;;;;;50.25;8.43;;;11.00;99.90;;;;;;4975494;28;20528;-83
2022/12/24 08:36:01;;;;;;;38.28;6.55;;;11.00;99.90;;;;;;4975472;28;20027;-83
2022/12/24 08:38:27;;;;;;;47.03;8.80;;;11.00;99.90;;;;;;4974076;28;20244;-83
2022/12/24 08:40:54;;;;;;;35.35;6.00;;;11.00;99.90;;;;;;4991433;28;20476;-87
2022/12/24 08:43:20;;;;;;;32.95;6.60;;;11.00;99.90;;;;;;4942998;28;20480;-87
2022/12/24 08:45:50;;;;;;;31.10;5.25;;;11.00;99.90;;;;;;4990975;28;20018;-88
2022/12/24 08:48:16;;;;;;;37.70;6.90;;;11.00;99.90;;;;;;4974813;28;20019;-87
2022/12/24 08:50:42;;;;;;;34.53;5.95;;;11.00;99.90;;;;;;4942707;28;20495;-87
2022/12/24 08:53:09;;;;;;;36.50;6.43;;;11.00;99.90;;;;;;4974606;28;20034;-88
2022/12/24 08:55:35;;;;;;;42.60;6.93;;;11.00;99.90;;;;;;4991010;28;20023;-86
2022/12/24 08:58:00;;;;;;;46.00;8.20;;;11.10;99.90;;;;;;4957902;28;20372;-87
2022/12/24 09:00:26;;;;;;;40.00;6.90;;;11.10;99.90;;;;;;4942109;28;20480;-85
2022/12/24 09:02:52;;;;;;;44.45;8.15;;;11.10;99.90;;;;;;4974217;28;20029;-83
2022/12/24 09:05:17;;;;;;;29.80;6.85;;;11.10;99.90;;;;;;4959330;28;20085;-84
2022/12/24 09:07:43;;;;;;;44.80;8.57;;;11.10;99.90;;;;;;4973524;28;20031;-84
2022/12/24 09:10:10;;;;;;;41.30;7.45;;;11.10;99.90;;;;;;4989901;28;20105;-84
2022/12/24 09:12:36;;;;;;;35.80;7.22;;;11.10;99.90;;;;;;4973802;28;20388;-84
2022/12/24 09:15:02;;;;;;;39.05;7.85;;;11.10;99.90;;;;;;4989855;28;20058;-84
2022/12/24 09:17:28;;;;;;;44.85;7.07;;;11.10;99.90;;;;;;4957948;28;20039;-87
2022/12/24 09:19:54;;;;;;;36.45;7.50;;;11.20;99.90;;;;;;4973888;28;20030;-86
2022/12/24 09:22:20;;;;;;;41.42;8.23;;;11.20;99.90;;;;;;4942171;28;20130;-87
2022/12/24 09:24:46;;;;;;;32.60;7.18;;;11.20;99.90;;;;;;4990221;28;20054;-86
2022/12/24 09:27:12;;;;;;;37.33;7.25;;;11.20;99.90;;;;;;4958554;28;20396;-87
2022/12/24 09:29:39;;;;;;;37.60;7.50;;;11.20;99.90;;;;;;4974468;28;20050;-87
2022/12/24 09:32:06;;;;;;;42.67;7.95;;;11.30;99.90;;;;;;4974186;28;20038;-87
2022/12/24 09:34:32;;;;;;;35.40;8.38;;;11.30;99.90;;;;;;4990927;28;20022;-88
2022/12/24 09:36:59;;;;;;;34.28;7.18;;;11.30;99.90;;;;;;4991313;28;20027;-87
2022/12/24 09:39:25;;;;;;;34.47;8.10;;;11.30;99.90;;;;;;4974131;28;20027;-87
2022/12/24 09:42:08;;;;;;;45.55;7.95;;;11.30;99.90;;;;;;4974134;28;20023;-87
2022/12/24 09:44:54;;;;;;;38.75;8.55;;;11.30;99.90;;;;;;4973686;28;20476;-87
2022/12/24 09:47:25;;;;;;;36.47;8.50;;;11.30;99.90;;;;;;4974818;28;20019;-87
2022/12/24 09:49:53;;;;;;;38.72;8.27;;;11.30;99.90;;;;;;4989835;28;20029;-84
2022/12/24 09:52:34;;;;;;;42.30;8.10;;;11.30;99.90;;;;;;4990223;28;20023;-84
2022/12/24 09:55:15;;;;;;;34.30;7.18;;;11.30;99.90;;;;;;4974899;28;20027;-84
2022/12/24 09:57:41;;;;;;;39.28;9.30;;;11.30;99.90;;;;;;4974989;28;20063;-84
2022/12/24 10:00:24;;;;;;;31.70;7.53;;;11.30;99.90;;;;;;4957259;28;20062;-84
2022/12/24 10:02:50;;;;;;;44.03;9.13;;;11.30;99.90;;;;;;4974970;28;20035;-84
2022/12/24 10:05:21;;;;;;;36.92;7.57;;;11.40;99.90;;;;;;4989550;28;20018;-84
2022/12/24 10:08:11;;;;;;;41.67;8.85;;;11.40;99.90;;;;;;4984452;28;20027;-86
2022/12/24 10:10:47;;;;;;;36.42;6.68;;;11.40;99.90;;;;;;4993458;28;20408;-86
2022/12/24 10:13:12;;;;;;;34.92;7.78;;;11.40;99.90;;;;;;4981604;28;20019;-87
2022/12/24 10:15:46;;;;;;;32.88;6.72;;;11.50;99.90;;;;;;4986412;28;20053;-84
2022/12/24 10:18:20;;;;;;;41.88;6.97;;;11.50;99.90;;;;;;4994982;28;20023;-84
2022/12/24 10:20:48;;;;;;;36.78;7.22;;;11.50;99.90;;;;;;4992155;28;20026;-85
2022/12/24 10:23:33;;;;;;;36.30;6.60;;;11.50;99.90;;;;;;4978420;28;20030;-86
2022/12/24 10:26:09;;;;;;;43.45;8.43;;;11.50;99.90;;;;;;4977059;28;20019;-87
2022/12/24 10:28:43;;;;;;;42.78;7.13;;;11.60;99.90;;;;;;4976834;28;20369;-87
2022/12/24 10:31:09;;;;;;;35.47;7.15;;;11.50;99.90;;;;;;4993777;28;20033;-87
2022/12/24 10:34:00;;;;;;;40.03;9.30;;;11.50;99.90;;;;;;4980130;28;20125;-87
2022/12/24 10:36:30;;;;;;;34.15;7.15;;;11.60;99.90;;;;;;4991485;28;20040;-87
2022/12/24 10:38:57;;;;;;;41.95;7.38;;;11.60;99.90;;;;;;4979857;28;20030;-87
2022/12/24 10:41:26;;;;;;;35.53;7.93;;;11.60;99.90;;;;;;4977432;28;20023;-87
2022/12/24 10:43:53;;;;;;;32.33;7.20;;;11.60;99.90;;;;;;4977799;28;20415;-87
2022/12/24 10:46:31;;;;;;;35.70;7.15;;;11.70;99.90;;;;;;4960667;28;20023;-87
2022/12/24 10:49:01;;;;;;;37.83;8.60;;;11.80;99.90;;;;;;4976537;28;20030;-86
2022/12/24 10:51:39;;;;;;;42.58;7.72;;;11.80;99.90;;;;;;4977999;28;20026;-87
2022/12/24 10:54:13;;;;;;;39.85;7.93;;;11.90;99.90;;;;;;4976569;28;20423;-87
2022/12/24 10:56:45;;;;;;;41.38;9.32;;;11.90;99.90;;;;;;4976298;28;20165;-88
2022/12/24 10:59:49;;;;;;;34.38;8.20;;;12.00;99.90;;;;;;4976823;28;20031;-88
2022/12/24 11:02:30;;;;;;;38.38;6.97;;;12.00;99.90;;;;;;4991888;28;20050;-88
2022/12/24 11:04:59;;;;;;;34.20;7.38;;;12.00;99.90;;;;;;4976184;28;20094;-84
2022/12/24 11:07:25;;;;;;;27.75;5.85;;;12.00;99.90;;;;;;4992209;28;20509;-84
2022/12/24 11:10:00;;;;;;;35.47;6.25;;;12.10;99.90;;;;;;4959488;28;20133;-84
2022/12/24 11:12:29;;;;;;;33.08;6.20;;;12.00;99.90;;;;;;4976608;28;20031;-86
2022/12/24 11:15:14;;;;;;;32.15;7.40;;;12.00;99.90;;;;;;4977052;28;20027;-86
2022/12/24 11:17:40;;;;;;;34.03;6.95;;;12.10;99.90;;;;;;4976530;28;20487;-86
2022/12/24 11:20:16;;;;;;;37.05;7.25;;;12.10;99.90;;;;;;4977699;28;20026;-84
2022/12/24 11:22:48;;;;;;;37.85;6.38;;;12.10;99.90;;;;;;4964889;28;20027;-85
2022/12/24 11:25:22;;;;;;;32.38;6.15;;;12.10;99.90;;;;;;4979049;28;20376;-84
2022/12/24 11:27:50;;;;;;;30.33;6.85;;;12.10;99.90;;;;;;4996963;28;20037;-84
2022/12/24 11:30:16;;;;;;;32.58;7.00;;;12.10;99.90;;;;;;4971133;28;20057;-84
2022/12/24 11:32:43;;;;;;;33.20;6.82;;;12.10;99.90;;;;;;4994863;28;20061;-84
2022/12/24 11:35:35;;;;;;;36.08;7.13;;;12.20;99.90;;;;;;4979022;28;20046;-84
2022/12/24 11:38:01;;;;;;;31.25;6.60;;;12.20;99.90;;;;;;4995298;28;20029;-85
2022/12/24 11:40:35;;;;;;;31.55;6.20;;;12.20;99.90;;;;;;4994913;28;20397;-84
2022/12/24 11:43:03;;;;;;;26.80;6.05;;;12.20;99.90;;;;;;4994967;28;20467;-85
2022/12/24 11:45:31;;;;;;;34.67;6.22;;;12.20;99.90;;;;;;4995117;28;20019;-85
2022/12/24 11:47:57;;;;;;;31.50;6.72;;;12.20;99.90;;;;;;4995323;28;20018;-82
2022/12/24 11:50:30;;;;;;;31.27;5.97;;;12.20;99.90;;;;;;4995071;28;20030;-83
2022/12/24 11:53:02;;;;;;;32.92;6.03;;;12.20;99.90;;;;;;4994522;28;20069;-82
2022/12/24 11:55:40;;;;;;;30.30;6.57;;;12.20;99.90;;;;;;4995005;28;20434;-82
2022/12/24 11:58:44;;;;;;;33.70;5.78;;;12.20;99.90;;;;;;4994378;28;20105;-83
2022/12/24 12:01:36;;;;;;;26.95;4.75;;;12.20;99.90;;;;;;4992824;28;20028;-83
2022/12/24 12:04:17;;;;;;;32.67;5.13;;;12.10;99.90;;;;;;4975188;28;20023;-87
2022/12/24 12:06:52;;;;;;;;;;;12.10;99.90;;;;;;4976001;28;20025;-88
2022/12/24 12:09:31;;;;;;;30.05;5.65;;;12.10;99.90;;;;;;4975297;28;20009;-87
2022/12/24 12:12:28;;;;;;;29.23;5.40;;;12.10;99.90;;;;;;4975233;28;20030;-86
2022/12/24 12:15:03;;;;;;;30.10;5.97;;;12.10;99.90;;;;;;4975029;28;20027;-88
2022/12/24 12:17:49;;;;;;;29.30;6.20;;;12.10;99.90;;;;;;4975216;28;20053;-87
2022/12/24 12:20:34;;;;;;;32.28;6.22;;;12.10;99.90;;;;;;4974979;28;20388;-86
2022/12/24 12:23:02;;;;;;;27.23;6.13;;;12.10;99.90;;;;;;4975111;28;20491;-86
2022/12/24 12:25:57;;;;;;;37.28;6.30;;;12.20;99.90;;;;;;4975150;28;20559;-87
2022/12/24 12:28:34;;;;;;;30.95;6.55;;;12.20;99.90;;;;;;4975133;28;20026;-85
2022/12/24 12:31:13;;;;;;;27.33;6.15;;;12.10;99.90;;;;;;4979487;28;20088;-87
2022/12/24 12:33:51;;;;;;;23.27;5.05;;;12.20;99.90;;;;;;4989659;28;20033;-87
2022/12/24 12:36:23;;;;;;;28.00;5.20;;;12.20;99.90;;;;;;4974508;28;20033;-86
2022/12/24 12:38:50;;;;;;;26.23;5.00;;;12.20;99.90;;;;;;4974996;28;20059;-87
2022/12/24 12:41:15;;;;;;;26.35;5.60;;;12.20;99.90;;;;;;4974419;28;20059;-88
2022/12/24 12:44:21;;;;;;;28.27;5.40;;;12.20;99.90;;;;;;4983579;28;20045;-87
2022/12/24 12:47:07;;;;;;;30.55;5.25;;;12.30;99.90;;;;;;4994645;28;20448;-87
2022/12/24 12:49:56;;;;;;;29.92;5.68;;;12.30;99.90;;;;;;4994476;28;20054;-89
2022/12/24 12:53:00;;;;;;;31.60;5.38;;;12.30;99.90;;;;;;4993974;28;20120;-87
2022/12/24 12:55:55;;;;;;;33.72;5.95;;;12.30;99.90;;;;;;4994107;28;20033;-87
2022/12/24 12:58:32;;;;;;;22.73;4.40;;;12.30;99.90;;;;;;4993626;28;20073;-87
2022/12/24 13:01:22;;;;;;;19.38;3.83;;;12.30;99.90;;;;;;4993801;28;20475;-88
2022/12/24 13:04:07;;;;;;;21.70;4.45;;;12.30;99.90;;;;;;5002816;28;20509;-87
2022/12/24 13:06:32;;;;;;;22.05;4.32;;;12.30;99.90;;;;;;4993799;28;20165;-88
2022/12/24 13:09:04;;;;;;;22.85;4.68;;;12.30;99.90;;;;;;4993663;28;20069;-87
2022/12/24 13:11:55;;;;;;;20.90;4.65;;;12.30;99.90;;;;;;4993424;28;20104;-89
2022/12/24 13:14:40;;;;;;;21.20;3.57;;;12.20;99.90;;;;;;4993732;28;20030;-86